createdAt,value
2022-10-09T00:02:12.767Z,7.03
2022-10-09T00:04:42.688Z,6.80
2022-10-09T00:07:18.694Z,6.67
2022-10-09T00:09:51.987Z,6.43
2022-10-09T00:12:32.349Z,6.20
2022-10-09T00:15:01.240Z,6.27
2022-10-09T00:17:35.135Z,5.67
2022-10-09T00:20:11.874Z,6.43
2022-10-09T00:22:43.875Z,6.27
2022-10-09T00:25:16.957Z,7.07
2022-10-09T00:27:47.398Z,7.20
2022-10-09T00:30:18.066Z,6.83
2022-10-09T00:32:48.602Z,6.60
2022-10-09T00:35:24.322Z,6.40
2022-10-09T00:37:54.524Z,6.27
2022-10-09T00:40:35.930Z,5.47
2022-10-09T00:43:13.405Z,5.70
2022-10-09T00:45:55.423Z,6.10
2022-10-09T00:48:23.902Z,6.00
2022-10-09T00:50:56.408Z,5.77
2022-10-09T00:53:30.214Z,5.13
2022-10-09T00:56:03.890Z,5.07
2022-10-09T00:58:31.655Z,4.87
2022-10-09T01:01:03.090Z,5.10
2022-10-09T01:03:47.330Z,4.53
2022-10-09T01:06:18.936Z,5.30
2022-10-09T01:09:02.668Z,5.77
2022-10-09T01:11:49.489Z,5.23
2022-10-09T01:14:28.877Z,5.40
2022-10-09T01:17:31.449Z,5.20
2022-10-09T01:20:16.168Z,5.53
2022-10-09T01:22:56.017Z,5.03
2022-10-09T01:25:43.558Z,5.60
2022-10-09T01:28:12.316Z,5.60
2022-10-09T01:30:42.869Z,6.23
2022-10-09T01:33:11.332Z,5.20
2022-10-09T01:35:51.814Z,5.30
2022-10-09T01:38:25.515Z,5.10
2022-10-09T01:40:59.968Z,5.07
2022-10-09T01:43:32.903Z,5.50
2022-10-09T01:46:27.951Z,6.23
2022-10-09T01:49:06.530Z,5.67
2022-10-09T01:51:41.916Z,5.70
2022-10-09T01:54:14.391Z,5.53
2022-10-09T01:56:49.893Z,6.03
2022-10-09T01:59:22.728Z,5.90
2022-10-09T02:02:00.646Z,5.60
2022-10-09T02:04:36.229Z,5.63
2022-10-09T02:07:06.746Z,5.80
2022-10-09T02:09:40.515Z,5.97
2022-10-09T02:12:16.319Z,6.00
2022-10-09T02:14:44.987Z,5.80
2022-10-09T02:17:24.648Z,6.10
2022-10-09T02:19:59.958Z,5.70
2022-10-09T02:22:32.823Z,5.57
2022-10-09T02:25:08.095Z,5.63
2022-10-09T02:27:39.237Z,5.90
2022-10-09T02:30:11.199Z,5.43
2022-10-09T02:32:47.512Z,5.50
2022-10-09T02:35:21.005Z,6.13
2022-10-09T02:37:54.044Z,5.90
2022-10-09T02:40:25.909Z,7.27
2022-10-09T02:42:56.403Z,5.80
2022-10-09T02:45:33.929Z,5.50
2022-10-09T02:48:18.435Z,7.00
2022-10-09T02:50:48.699Z,6.93
2022-10-09T02:53:19.547Z,6.70
2022-10-09T02:55:54.989Z,6.53
2022-10-09T02:58:34.433Z,6.83
2022-10-09T03:01:05.520Z,7.30
2022-10-09T03:03:35.486Z,6.63
2022-10-09T03:06:08.217Z,7.07
2022-10-09T03:08:58.659Z,7.63
2022-10-09T03:11:33.502Z,7.60
2022-10-09T03:14:01.305Z,7.50
2022-10-09T03:16:32.623Z,7.67
2022-10-09T03:19:05.245Z,7.97
2022-10-09T03:21:39.913Z,8.63
2022-10-09T03:24:16.829Z,8.57
2022-10-09T03:27:01.308Z,7.73
2022-10-09T03:29:37.801Z,7.50
2022-10-09T03:32:17.099Z,8.97
2022-10-09T03:34:47.415Z,8.17
2022-10-09T03:37:19.821Z,7.63
2022-10-09T03:39:52.946Z,7.13
2022-10-09T03:42:26.964Z,8.17
2022-10-09T03:44:55.027Z,6.93
2022-10-09T03:47:34.452Z,6.67
2022-10-09T03:50:05.364Z,5.40
2022-10-09T03:52:33.199Z,6.20
2022-10-09T03:55:11.897Z,6.40
2022-10-09T03:57:47.398Z,6.30
2022-10-09T04:00:26.700Z,5.97
2022-10-09T04:03:01.952Z,5.90
2022-10-09T04:05:45.049Z,6.27
2022-10-09T04:08:26.753Z,6.67
2022-10-09T04:11:04.796Z,5.90
2022-10-09T04:13:35.635Z,6.83
2022-10-09T04:16:06.043Z,7.00
2022-10-09T04:18:43.899Z,7.07
2022-10-09T04:21:13.321Z,5.97
2022-10-09T04:23:44.413Z,6.80
2022-10-09T04:26:18.827Z,7.43
2022-10-09T04:28:48.325Z,8.00
2022-10-09T04:31:19.328Z,7.53
2022-10-09T04:33:52.366Z,7.23
2022-10-09T04:36:30.628Z,7.60
2022-10-09T04:39:09.809Z,7.73
2022-10-09T04:41:43.079Z,7.40
2022-10-09T04:44:17.907Z,7.53
2022-10-09T04:46:48.256Z,6.60
2022-10-09T04:49:28.979Z,7.13
2022-10-09T04:51:59.458Z,7.37
2022-10-09T04:54:36.276Z,6.83
2022-10-09T04:57:08.289Z,7.60
2022-10-09T04:59:53.308Z,7.67
2022-10-09T05:02:25.730Z,6.83
2022-10-09T05:04:57.845Z,7.73
2022-10-09T05:07:26.010Z,6.63
2022-10-09T05:10:01.156Z,6.83
2022-10-09T05:12:38.056Z,7.90
2022-10-09T05:15:20.135Z,7.73
2022-10-09T05:17:55.732Z,6.70
2022-10-09T05:20:38.981Z,7.37
2022-10-09T05:23:33.826Z,6.90
2022-10-09T05:26:05.798Z,6.07
2022-10-09T05:28:40.485Z,6.47
2022-10-09T05:31:23.546Z,6.60
2022-10-09T05:33:58.178Z,6.57
2022-10-09T05:36:49.749Z,7.60
2022-10-09T05:39:24.716Z,6.97
2022-10-09T05:41:59.716Z,7.30
2022-10-09T05:44:34.959Z,5.90
2022-10-09T05:47:48.756Z,7.00
2022-10-09T05:50:42.263Z,6.77
2022-10-09T05:56:32.536Z,6.63
2022-10-09T05:59:12.299Z,6.70
2022-10-09T06:04:57.821Z,6.87
2022-10-09T06:07:49.548Z,6.73
2022-10-09T06:11:02.691Z,6.47
2022-10-09T06:13:41.246Z,6.00
2022-10-09T06:16:16.089Z,6.60
2022-10-09T06:19:28.461Z,6.20
2022-10-09T06:22:04.913Z,6.70
2022-10-09T06:24:38.946Z,6.47
2022-10-09T06:27:17.207Z,6.90
2022-10-09T06:30:03.209Z,6.37
2022-10-09T06:36:38.939Z,5.17
2022-10-09T06:39:24.023Z,6.37
2022-10-09T06:45:01.101Z,6.43
2022-10-09T06:47:31.445Z,6.43
2022-10-09T06:52:53.529Z,8.00
2022-10-09T06:55:28.694Z,6.67
2022-10-09T06:58:10.408Z,9.43
2022-10-09T07:00:45.590Z,13.20
2022-10-09T07:03:17.572Z,8.63
2022-10-09T07:06:00.569Z,9.03
2022-10-09T07:08:40.417Z,6.43
2022-10-09T07:11:41.579Z,5.20
2022-10-09T07:14:20.515Z,5.93
2022-10-09T07:16:59.743Z,5.73
2022-10-09T07:19:26.937Z,6.30
2022-10-09T07:21:56.882Z,4.90
2022-10-09T07:24:57.843Z,5.30
2022-10-09T07:27:41.074Z,5.10
2022-10-09T07:30:21.494Z,11.43
2022-10-09T07:32:52.533Z,10.90
2022-10-09T07:35:30.507Z,8.10
2022-10-09T07:37:58.533Z,4.23
2022-10-09T07:40:27.433Z,3.30
2022-10-09T07:42:58.432Z,4.23
2022-10-09T07:45:25.708Z,4.50
2022-10-09T07:47:58.137Z,3.60
2022-10-09T07:50:25.357Z,4.00
2022-10-09T07:52:52.442Z,4.00
2022-10-09T07:55:19.789Z,3.80
2022-10-09T07:57:54.305Z,4.37
2022-10-09T08:00:33.108Z,4.90
2022-10-09T08:03:14.454Z,4.47
2022-10-09T08:05:54.945Z,4.80
2022-10-09T08:08:25.308Z,4.67
2022-10-09T08:10:54.959Z,4.30
2022-10-09T08:13:24.832Z,4.37
2022-10-09T08:15:53.033Z,3.33
2022-10-09T08:18:20.077Z,3.93
2022-10-09T08:21:06.741Z,3.73
2022-10-09T08:23:42.297Z,4.20
2022-10-09T08:26:17.807Z,4.47
2022-10-09T08:28:59.314Z,5.00
2022-10-09T08:31:43.643Z,4.30
2022-10-09T08:34:13.365Z,3.70
2022-10-09T08:36:51.732Z,3.70
2022-10-09T08:39:27.079Z,3.63
2022-10-09T08:41:56.266Z,3.77
2022-10-09T08:44:31.936Z,4.15
2022-10-09T08:47:11.718Z,3.90
2022-10-09T08:50:12.212Z,4.55
2022-10-09T08:52:59.151Z,4.10
2022-10-09T08:55:55.228Z,3.58
2022-10-09T08:58:25.419Z,4.03
2022-10-09T09:01:07.166Z,4.60
2022-10-09T09:04:07.158Z,4.82
2022-10-09T09:06:58.970Z,4.50
2022-10-09T09:09:53.355Z,4.40
2022-10-09T09:12:52.550Z,4.32
2022-10-09T09:15:31.681Z,3.72
2022-10-09T09:18:07.301Z,8.13
2022-10-09T09:20:53.554Z,16.33
2022-10-09T09:23:37.588Z,8.07
2022-10-09T09:26:28.492Z,4.57
2022-10-09T09:29:10.069Z,8.82
2022-10-09T09:31:38.197Z,4.53
2022-10-09T09:34:14.156Z,2.88
2022-10-09T09:37:08.903Z,3.15
2022-10-09T09:42:24.443Z,2.50
2022-10-09T09:45:07.424Z,2.55
2022-10-09T09:47:55.046Z,2.60
2022-10-09T09:51:27.408Z,2.05
2022-10-09T09:55:03.581Z,2.35
2022-10-09T09:57:59.964Z,2.27
2022-10-09T10:00:59.199Z,2.10
2022-10-09T10:03:28.949Z,2.08
2022-10-09T10:06:09.938Z,2.08
2022-10-09T10:09:00.449Z,2.13
2022-10-09T10:11:40.991Z,1.98
2022-10-09T10:14:17.728Z,2.40
2022-10-09T10:16:57.105Z,1.90
2022-10-09T10:19:52.445Z,2.00
2022-10-09T10:23:15.653Z,2.33
2022-10-09T10:25:59.174Z,2.20
2022-10-09T10:29:12.004Z,1.88
2022-10-09T10:32:05.854Z,1.52
2022-10-09T10:34:41.080Z,1.60
2022-10-09T10:37:16.028Z,3.90
2022-10-09T10:39:57.388Z,2.13
2022-10-09T10:42:44.624Z,1.63
2022-10-09T10:45:38.574Z,2.22
2022-10-09T10:49:03.493Z,2.67
2022-10-09T10:51:47.946Z,2.90
2022-10-09T10:54:50.765Z,1.65
2022-10-09T10:57:42.586Z,1.75
2022-10-09T11:00:14.386Z,2.30
2022-10-09T11:03:03.331Z,2.50
2022-10-09T11:06:13.332Z,1.70
2022-10-09T11:08:52.106Z,1.50
2022-10-09T11:12:24.573Z,1.52
2022-10-09T11:15:13.378Z,3.15
2022-10-09T11:17:54.239Z,2.05
2022-10-09T11:20:54.842Z,2.40
2022-10-09T11:23:50.050Z,1.63
2022-10-09T11:26:36.764Z,1.30
2022-10-09T11:29:17.882Z,1.30
2022-10-09T11:31:52.266Z,1.25
2022-10-09T11:34:42.937Z,1.13
2022-10-09T11:37:17.968Z,1.30
2022-10-09T11:39:46.889Z,1.55
2022-10-09T11:42:20.234Z,1.02
2022-10-09T11:45:21.914Z,1.20
2022-10-09T11:48:14.382Z,1.25
2022-10-09T11:51:16.589Z,1.25
2022-10-09T11:53:44.900Z,1.15
2022-10-09T11:56:24.814Z,1.10
2022-10-09T11:59:23.405Z,1.13
2022-10-09T12:02:02.124Z,1.10
2022-10-09T12:04:57.448Z,1.10
2022-10-09T12:08:00.711Z,1.00
2022-10-09T12:11:00.388Z,0.90
2022-10-09T12:14:04.619Z,1.10
2022-10-09T12:16:45.615Z,1.05
2022-10-09T12:19:27.610Z,1.17
2022-10-09T12:22:34.447Z,1.10
2022-10-09T12:25:26.012Z,1.00
2022-10-09T12:28:32.317Z,1.25
2022-10-09T12:31:53.026Z,1.00
2022-10-09T12:35:14.829Z,1.00
2022-10-09T12:38:09.314Z,1.20
2022-10-09T12:41:45.230Z,1.30
2022-10-09T12:44:38.554Z,1.10
2022-10-09T12:51:00.803Z,1.10
2022-10-09T12:53:29.207Z,1.20
2022-10-09T12:56:01.786Z,0.90
2022-10-09T12:58:33.559Z,1.13
2022-10-09T13:01:07.035Z,1.10
2022-10-09T13:04:05.016Z,1.08
2022-10-09T13:06:47.990Z,1.08
2022-10-09T13:09:26.740Z,0.90
2022-10-09T13:12:06.509Z,0.90
2022-10-09T13:15:05.645Z,1.13
2022-10-09T13:17:40.573Z,1.25
2022-10-09T13:20:33.337Z,1.20
2022-10-09T13:23:10.914Z,1.27
2022-10-09T13:25:41.076Z,1.40
2022-10-09T13:28:08.053Z,1.30
2022-10-09T13:30:35.046Z,1.10
2022-10-09T13:33:01.947Z,1.20
2022-10-09T13:35:28.754Z,1.45
2022-10-09T13:37:55.551Z,1.23
2022-10-09T13:40:22.481Z,1.33
2022-10-09T13:42:55.956Z,1.27
2022-10-09T13:45:23.245Z,1.25
2022-10-09T13:47:52.637Z,1.38
2022-10-09T13:50:20.652Z,1.38
2022-10-09T13:52:47.619Z,1.30
2022-10-09T13:55:15.797Z,1.30
2022-10-09T13:57:42.796Z,1.20
2022-10-09T14:00:10.200Z,1.70
2022-10-09T14:02:37.066Z,2.00
2022-10-09T14:05:04.143Z,1.60
2022-10-09T14:07:30.972Z,1.75
2022-10-09T14:09:57.784Z,2.25
2022-10-09T14:12:24.630Z,2.42
2022-10-09T14:14:53.604Z,1.45
2022-10-09T14:17:20.454Z,1.60
2022-10-09T14:19:48.064Z,1.20
2022-10-09T14:22:15.313Z,1.50
2022-10-09T14:24:42.854Z,2.08
2022-10-09T14:27:09.671Z,2.30
2022-10-09T14:29:38.213Z,1.80
2022-10-09T14:32:06.104Z,4.32
2022-10-09T14:34:33.048Z,1.63
2022-10-09T14:36:59.880Z,1.83
2022-10-09T14:39:26.746Z,1.50
2022-10-09T14:41:54.000Z,1.63
2022-10-09T14:44:23.835Z,1.30
2022-10-09T14:46:50.868Z,1.60
2022-10-09T14:49:17.838Z,1.60
2022-10-09T14:51:44.768Z,1.30
2022-10-09T14:54:12.280Z,1.38
2022-10-09T14:56:39.371Z,1.30
2022-10-09T14:59:06.593Z,1.73
2022-10-09T15:01:34.738Z,1.40
2022-10-09T15:04:02.842Z,1.50
2022-10-09T15:06:29.774Z,1.98
2022-10-09T15:09:05.337Z,1.70
2022-10-09T15:11:35.140Z,1.30
2022-10-09T15:14:02.478Z,1.73
2022-10-09T15:16:29.394Z,1.70
2022-10-09T15:18:56.576Z,1.80
2022-10-09T15:21:25.558Z,1.48
2022-10-09T15:23:55.002Z,1.90
2022-10-09T15:26:22.953Z,1.50
2022-10-09T15:28:49.746Z,1.80
2022-10-09T15:31:29.845Z,1.73
2022-10-09T15:34:01.134Z,1.40
2022-10-09T15:36:32.192Z,1.73
2022-10-09T15:39:02.915Z,1.70
2022-10-09T15:41:32.152Z,1.65
2022-10-09T15:44:06.046Z,1.70
2022-10-09T15:46:33.083Z,1.45
2022-10-09T15:48:59.913Z,1.80
2022-10-09T15:51:26.825Z,1.42
2022-10-09T15:53:54.711Z,1.80
2022-10-09T15:56:23.660Z,1.80
2022-10-09T15:58:51.752Z,1.65
2022-10-09T16:01:19.498Z,1.55
2022-10-09T16:03:46.539Z,1.58
2022-10-09T16:06:17.939Z,1.77
2022-10-09T16:08:46.049Z,1.60
2022-10-09T16:11:15.002Z,1.80
2022-10-09T16:13:44.242Z,1.33
2022-10-09T16:16:15.252Z,1.20
2022-10-09T16:18:47.139Z,1.70
2022-10-09T16:21:17.290Z,2.80
2022-10-09T16:23:45.243Z,2.90
2022-10-09T16:26:14.436Z,3.10
2022-10-09T16:28:41.939Z,2.40
2022-10-09T16:31:09.298Z,2.13
2022-10-09T16:33:36.451Z,2.30
2022-10-09T16:36:07.855Z,2.80
2022-10-09T16:38:34.971Z,3.53
2022-10-09T16:41:02.778Z,3.73
2022-10-09T16:43:33.016Z,3.00
2022-10-09T16:46:16.632Z,3.70
2022-10-09T16:48:44.152Z,3.07
2022-10-09T16:51:16.491Z,3.30
2022-10-09T16:53:43.722Z,3.40
2022-10-09T16:56:14.893Z,3.10
2022-10-09T16:58:42.752Z,4.13
2022-10-09T17:01:11.884Z,4.53
2022-10-09T17:03:43.004Z,4.70
2022-10-09T17:06:12.035Z,5.25
2022-10-09T17:08:39.301Z,6.05
2022-10-09T17:33:07.414Z,3.70
2022-10-09T17:38:07.752Z,4.03
2022-10-09T17:40:39.236Z,4.30
2022-10-09T17:43:07.946Z,5.53
2022-10-09T17:45:42.938Z,6.50
2022-10-09T17:48:10.620Z,6.30
2022-10-09T17:50:37.862Z,6.33
2022-10-09T17:53:05.372Z,6.63
2022-10-09T17:55:32.674Z,6.80
2022-10-09T17:58:00.452Z,6.50
2022-10-09T18:00:27.648Z,6.17
2022-10-09T18:02:58.195Z,7.47
2022-10-09T18:05:25.414Z,7.20
2022-10-09T18:07:53.904Z,7.33
2022-10-09T18:10:21.436Z,7.27
2022-10-09T18:12:48.634Z,6.57
2022-10-09T18:15:16.072Z,7.10
2022-10-09T18:17:43.404Z,7.67
2022-10-09T18:20:10.657Z,7.60
2022-10-09T18:22:37.914Z,8.83
2022-10-09T18:25:05.884Z,8.93
2022-10-09T18:27:34.110Z,9.37
2022-10-09T18:30:01.362Z,9.90
2022-10-09T18:32:29.584Z,8.87
2022-10-09T18:34:56.721Z,9.40
2022-10-09T18:37:24.019Z,9.37
2022-10-09T18:39:51.570Z,7.70
2022-10-09T18:42:18.701Z,6.60
2022-10-09T18:44:46.002Z,6.73
2022-10-09T18:47:16.898Z,7.17
2022-10-09T18:49:49.211Z,8.63
2022-10-09T18:52:17.949Z,17.73
2022-10-09T18:54:46.774Z,18.60
2022-10-09T18:57:14.062Z,18.47
2022-10-09T18:59:41.333Z,16.90
2022-10-09T19:02:08.136Z,16.47
2022-10-09T19:04:34.934Z,15.07
2022-10-09T19:07:11.071Z,13.60
2022-10-09T19:09:37.898Z,12.27
2022-10-09T19:12:04.769Z,12.20
2022-10-09T19:14:31.792Z,10.90
2022-10-09T19:16:58.575Z,10.87
2022-10-09T19:19:53.248Z,9.57
2022-10-09T19:22:23.768Z,8.33
2022-10-09T19:24:51.287Z,9.00
2022-10-09T19:27:18.482Z,8.10
2022-10-09T19:29:45.633Z,9.23
2022-10-09T19:32:12.863Z,7.83
2022-10-09T19:34:40.074Z,7.87
2022-10-09T19:37:07.333Z,8.50
2022-10-09T19:39:34.491Z,11.50
2022-10-09T19:42:04.837Z,9.37
2022-10-09T19:44:32.003Z,9.13
2022-10-09T19:46:59.198Z,8.77
2022-10-09T19:49:26.457Z,8.53
2022-10-09T19:51:53.653Z,8.17
2022-10-09T19:54:20.877Z,7.87
2022-10-09T19:56:48.080Z,7.10
2022-10-09T19:59:15.228Z,7.40
2022-10-09T20:01:42.465Z,6.90
2022-10-09T20:04:10.708Z,8.80
2022-10-09T20:06:39.369Z,8.87
2022-10-09T20:09:07.310Z,8.03
2022-10-09T20:11:35.001Z,7.57
2022-10-09T20:14:02.526Z,7.87
2022-10-09T20:16:32.180Z,9.00
2022-10-09T20:19:00.244Z,8.10
2022-10-09T20:21:27.897Z,7.70
2022-10-09T20:23:56.810Z,7.70
2022-10-09T20:26:24.390Z,7.17
2022-10-09T20:28:53.837Z,6.40
2022-10-09T20:31:22.767Z,6.03
2022-10-09T20:33:50.825Z,5.90
2022-10-09T20:36:29.016Z,6.03
2022-10-09T20:39:09.876Z,6.77
2022-10-09T20:41:37.202Z,6.83
2022-10-09T20:44:05.018Z,7.07
2022-10-09T20:46:33.422Z,7.37
2022-10-09T20:49:02.301Z,8.23
2022-10-09T20:51:29.538Z,7.33
2022-10-09T20:53:58.172Z,7.90
2022-10-09T20:56:26.288Z,7.47
2022-10-09T20:58:53.472Z,8.97
2022-10-09T21:01:21.137Z,7.77
2022-10-09T21:03:48.585Z,6.60
2022-10-09T21:06:17.479Z,7.23
2022-10-09T21:08:44.651Z,6.23
2022-10-09T21:11:13.077Z,5.97
2022-10-09T21:13:41.670Z,5.50
2022-10-09T21:16:10.590Z,5.60
2022-10-09T21:18:37.885Z,5.10
2022-10-09T21:21:09.592Z,5.40
2022-10-09T21:23:36.925Z,5.20
2022-10-09T21:29:27.129Z,4.93
2022-10-09T21:31:54.350Z,5.10
2022-10-09T21:34:21.499Z,5.37
2022-10-09T21:37:19.473Z,5.87
2022-10-09T21:39:37.525Z,5.27
2022-10-09T21:42:04.766Z,5.40
2022-10-09T21:44:31.942Z,5.40
2022-10-09T21:46:59.091Z,5.77
2022-10-09T21:49:29.558Z,5.20
2022-10-09T21:51:56.873Z,5.30
2022-10-09T21:54:24.257Z,5.67
2022-10-09T21:56:51.863Z,6.03
2022-10-09T21:59:19.084Z,5.97
2022-10-09T22:04:51.621Z,6.50
2022-10-09T22:07:18.912Z,6.13
2022-10-09T22:09:46.107Z,5.60
2022-10-09T22:12:13.332Z,5.40
2022-10-09T22:14:40.493Z,5.13
2022-10-09T22:17:07.715Z,5.47
2022-10-09T22:19:34.946Z,5.67
2022-10-09T22:22:02.081Z,5.17
2022-10-09T22:24:30.165Z,4.73
2022-10-09T22:26:57.763Z,4.63
2022-10-09T22:29:25.384Z,4.60
2022-10-09T22:31:52.809Z,4.83
2022-10-09T22:34:20.144Z,5.37
2022-10-09T22:36:47.492Z,4.40
2022-10-09T22:39:14.703Z,4.77
2022-10-09T22:41:41.882Z,4.67
2022-10-09T22:44:09.546Z,4.50
2022-10-09T22:46:38.151Z,5.03
2022-10-09T22:49:06.511Z,4.33
2022-10-09T22:51:34.092Z,4.87
2022-10-09T22:54:01.297Z,4.83
2022-10-09T22:56:29.949Z,4.50
2022-10-09T22:58:57.343Z,4.47
2022-10-09T23:01:25.285Z,4.17
2022-10-09T23:03:52.546Z,4.07
2022-10-09T23:06:20.927Z,4.83
2022-10-09T23:08:49.259Z,4.67
2022-10-09T23:11:17.309Z,4.63
2022-10-09T23:13:44.965Z,4.47
2022-10-09T23:16:13.157Z,4.40
2022-10-09T23:18:41.226Z,4.50
2022-10-09T23:21:09.851Z,4.93
2022-10-09T23:23:37.017Z,4.53
2022-10-09T23:26:12.183Z,4.80
2022-10-09T23:28:39.661Z,4.93
2022-10-09T23:31:11.516Z,4.70
2022-10-09T23:33:40.019Z,5.00
2022-10-09T23:36:07.823Z,5.00
2022-10-09T23:38:54.020Z,5.20
2022-10-09T23:41:22.467Z,5.37
2022-10-09T23:43:49.803Z,5.23
2022-10-09T23:46:27.560Z,5.10
2022-10-09T23:48:54.897Z,5.93
2022-10-09T23:51:23.275Z,5.30
2022-10-09T23:53:50.541Z,4.95
2022-10-09T23:57:00.855Z,5.13
2022-10-09T23:59:28.046Z,5.40
